sensor_id;sensor_type;location;lat;lon;timestamp;pressure;altitude;pressure_sealevel;temperature;humidity
79538;BME280;68989;52.032;5.152;2023-10-09T00:01:33;102115.98;;;22.78;50.06
79538;BME280;68989;52.032;5.152;2023-10-09T00:04:00;102115.38;;;22.79;49.91
79538;BME280;68989;52.032;5.152;2023-10-09T00:06:27;102119.25;;;22.79;49.97
79538;BME280;68989;52.032;5.152;2023-10-09T00:08:54;102125.70;;;22.79;49.93
79538;BME280;68989;52.032;5.152;2023-10-09T00:11:22;102113.75;;;22.77;50.10
79538;BME280;68989;52.032;5.152;2023-10-09T00:13:49;102104.28;;;22.76;50.09
79538;BME280;68989;52.032;5.152;2023-10-09T00:16:18;102092.43;;;22.77;50.10
79538;BME280;68989;52.032;5.152;2023-10-09T00:18:45;102094.19;;;22.80;50.09
79538;BME280;68989;52.032;5.152;2023-10-09T00:21:14;102096.84;;;22.75;50.19
79538;BME280;68989;52.032;5.152;2023-10-09T00:23:41;102101.63;;;22.76;50.11
79538;BME280;68989;52.032;5.152;2023-10-09T00:26:09;102113.39;;;22.77;50.21
79538;BME280;68989;52.032;5.152;2023-10-09T00:28:37;102112.89;;;22.77;50.15
79538;BME280;68989;52.032;5.152;2023-10-09T00:31:04;102116.92;;;22.77;50.23
79538;BME280;68989;52.032;5.152;2023-10-09T00:33:32;102120.61;;;22.78;50.15
79538;BME280;68989;52.032;5.152;2023-10-09T00:36:02;102116.13;;;22.78;50.19
79538;BME280;68989;52.032;5.152;2023-10-09T00:38:29;102113.56;;;22.79;50.24
79538;BME280;68989;52.032;5.152;2023-10-09T00:40:56;102113.60;;;22.84;50.06
79538;BME280;68989;52.032;5.152;2023-10-09T00:43:24;102115.19;;;22.86;50.08
79538;BME280;68989;52.032;5.152;2023-10-09T00:45:51;102112.95;;;22.87;50.10
79538;BME280;68989;52.032;5.152;2023-10-09T00:48:18;102115.54;;;22.83;50.21
79538;BME280;68989;52.032;5.152;2023-10-09T00:50:46;102106.38;;;22.83;50.24
79538;BME280;68989;52.032;5.152;2023-10-09T00:53:13;102106.74;;;22.84;50.27
79538;BME280;68989;52.032;5.152;2023-10-09T00:55:40;102104.65;;;22.84;50.25
79538;BME280;68989;52.032;5.152;2023-10-09T00:58:08;102102.04;;;22.85;50.25
79538;BME280;68989;52.032;5.152;2023-10-09T01:02:43;102099.62;;;22.87;50.33
79538;BME280;68989;52.032;5.152;2023-10-09T01:05:51;102096.52;;;22.88;50.27
79538;BME280;68989;52.032;5.152;2023-10-09T01:08:26;102093.64;;;22.89;50.29
79538;BME280;68989;52.032;5.152;2023-10-09T01:11:43;102094.40;;;22.89;50.27
79538;BME280;68989;52.032;5.152;2023-10-09T01:14:15;102090.24;;;22.90;50.31
79538;BME280;68989;52.032;5.152;2023-10-09T01:17:32;102096.70;;;22.91;50.29
79538;BME280;68989;52.032;5.152;2023-10-09T01:20:21;102088.57;;;22.92;50.35
79538;BME280;68989;52.032;5.152;2023-10-09T01:23:14;102087.19;;;22.94;50.31
79538;BME280;68989;52.032;5.152;2023-10-09T01:25:55;102080.15;;;22.95;50.35
79538;BME280;68989;52.032;5.152;2023-10-09T01:32:17;102076.46;;;22.98;50.50
79538;BME280;68989;52.032;5.152;2023-10-09T01:34:57;102068.71;;;22.99;50.61
79538;BME280;68989;52.032;5.152;2023-10-09T01:37:33;102066.72;;;23.01;50.50
79538;BME280;68989;52.032;5.152;2023-10-09T01:43:34;102056.72;;;23.06;50.49
79538;BME280;68989;52.032;5.152;2023-10-09T01:46:31;102057.06;;;23.06;50.45
79538;BME280;68989;52.032;5.152;2023-10-09T01:49:09;102056.49;;;23.08;50.44
79538;BME280;68989;52.032;5.152;2023-10-09T01:53:30;102053.01;;;23.11;50.57
79538;BME280;68989;52.032;5.152;2023-10-09T02:06:54;102052.46;;;23.18;50.39
79538;BME280;68989;52.032;5.152;2023-10-09T02:26:18;102029.67;;;23.21;50.52
79538;BME280;68989;52.032;5.152;2023-10-09T02:50:27;102016.63;;;23.20;50.55
79538;BME280;68989;52.032;5.152;2023-10-09T02:53:22;102010.02;;;23.20;50.56
79538;BME280;68989;52.032;5.152;2023-10-09T03:04:11;102003.30;;;23.22;50.49
79538;BME280;68989;52.032;5.152;2023-10-09T03:08:40;102009.30;;;23.22;50.53
79538;BME280;68989;52.032;5.152;2023-10-09T03:11:32;102004.18;;;23.21;50.64
79538;BME280;68989;52.032;5.152;2023-10-09T03:20:02;101989.33;;;23.23;50.84
79538;BME280;68989;52.032;5.152;2023-10-09T03:25:41;101972.71;;;23.25;50.97
79538;BME280;68989;52.032;5.152;2023-10-09T03:38:20;101969.12;;;23.29;50.94
79538;BME280;68989;52.032;5.152;2023-10-09T03:59:41;102032.58;;;23.37;51.22
79538;BME280;68989;52.032;5.152;2023-10-09T04:02:24;102033.68;;;23.38;51.48
79538;BME280;68989;52.032;5.152;2023-10-09T04:05:32;102021.61;;;23.40;51.56
79538;BME280;68989;52.032;5.152;2023-10-09T04:08:12;102020.00;;;23.42;51.52
79538;BME280;68989;52.032;5.152;2023-10-09T04:10:49;102019.40;;;23.44;51.43
79538;BME280;68989;52.032;5.152;2023-10-09T04:13:18;102017.38;;;23.46;51.15
79538;BME280;68989;52.032;5.152;2023-10-09T04:15:49;102014.69;;;23.47;51.28
79538;BME280;68989;52.032;5.152;2023-10-09T04:18:23;102019.15;;;23.48;51.06
79538;BME280;68989;52.032;5.152;2023-10-09T04:20:52;102027.44;;;23.48;51.03
79538;BME280;68989;52.032;5.152;2023-10-09T04:23:25;102036.21;;;23.49;51.09
79538;BME280;68989;52.032;5.152;2023-10-09T04:26:01;102032.88;;;23.49;50.90
79538;BME280;68989;52.032;5.152;2023-10-09T04:37:45;102003.33;;;23.48;51.07
79538;BME280;68989;52.032;5.152;2023-10-09T04:52:48;101985.12;;;23.53;51.33
79538;BME280;68989;52.032;5.152;2023-10-09T04:55:19;101996.55;;;23.53;51.78
79538;BME280;68989;52.032;5.152;2023-10-09T04:57:47;102011.58;;;23.54;52.63
79538;BME280;68989;52.032;5.152;2023-10-09T05:00:15;102006.92;;;23.55;52.45
79538;BME280;68989;52.032;5.152;2023-10-09T05:02:43;102009.67;;;23.57;52.04
79538;BME280;68989;52.032;5.152;2023-10-09T05:05:11;102015.91;;;23.58;52.22
79538;BME280;68989;52.032;5.152;2023-10-09T05:07:38;102014.64;;;23.59;52.08
79538;BME280;68989;52.032;5.152;2023-10-09T05:10:07;102001.28;;;23.60;51.89
79538;BME280;68989;52.032;5.152;2023-10-09T05:12:34;102004.44;;;23.60;51.87
79538;BME280;68989;52.032;5.152;2023-10-09T05:15:01;102013.48;;;23.61;51.73
79538;BME280;68989;52.032;5.152;2023-10-09T05:17:28;102014.81;;;23.62;51.65
79538;BME280;68989;52.032;5.152;2023-10-09T05:19:56;102015.49;;;23.63;51.60
79538;BME280;68989;52.032;5.152;2023-10-09T05:22:23;102021.18;;;23.65;51.52
79538;BME280;68989;52.032;5.152;2023-10-09T05:24:50;102037.98;;;23.66;51.37
79538;BME280;68989;52.032;5.152;2023-10-09T05:27:18;102043.49;;;23.67;51.52
79538;BME280;68989;52.032;5.152;2023-10-09T05:29:45;102054.76;;;23.67;51.46
79538;BME280;68989;52.032;5.152;2023-10-09T05:32:11;102044.40;;;23.67;51.58
79538;BME280;68989;52.032;5.152;2023-10-09T05:34:38;102035.15;;;23.66;51.75
79538;BME280;68989;52.032;5.152;2023-10-09T05:37:06;102039.36;;;23.66;51.78
79538;BME280;68989;52.032;5.152;2023-10-09T05:39:33;102046.09;;;23.67;51.81
79538;BME280;68989;52.032;5.152;2023-10-09T05:42:01;102046.26;;;23.67;51.76
79538;BME280;68989;52.032;5.152;2023-10-09T05:44:28;102056.84;;;23.67;51.65
79538;BME280;68989;52.032;5.152;2023-10-09T05:46:56;102067.35;;;23.68;51.59
79538;BME280;68989;52.032;5.152;2023-10-09T05:49:23;102067.17;;;23.69;51.94
79538;BME280;68989;52.032;5.152;2023-10-09T05:51:50;102074.71;;;23.68;51.85
79538;BME280;68989;52.032;5.152;2023-10-09T05:54:16;102062.17;;;23.69;51.97
79538;BME280;68989;52.032;5.152;2023-10-09T05:56:43;102054.88;;;23.69;52.02
79538;BME280;68989;52.032;5.152;2023-10-09T05:59:11;102057.88;;;23.70;52.04
79538;BME280;68989;52.032;5.152;2023-10-09T06:01:38;102039.59;;;23.71;51.99
79538;BME280;68989;52.032;5.152;2023-10-09T06:04:05;102019.83;;;23.71;51.99
79538;BME280;68989;52.032;5.152;2023-10-09T06:06:32;102016.94;;;23.71;52.25
79538;BME280;68989;52.032;5.152;2023-10-09T06:09:01;102009.70;;;23.72;52.18
79538;BME280;68989;52.032;5.152;2023-10-09T06:11:28;101991.59;;;23.73;52.13
79538;BME280;68989;52.032;5.152;2023-10-09T06:13:56;101992.24;;;23.73;52.31
79538;BME280;68989;52.032;5.152;2023-10-09T06:16:23;101998.91;;;23.74;52.55
79538;BME280;68989;52.032;5.152;2023-10-09T06:18:50;102013.41;;;23.75;52.55
79538;BME280;68989;52.032;5.152;2023-10-09T06:21:18;102009.57;;;23.76;52.38
79538;BME280;68989;52.032;5.152;2023-10-09T06:23:45;102001.75;;;23.77;52.60
79538;BME280;68989;52.032;5.152;2023-10-09T06:26:12;101993.87;;;23.78;52.60
79538;BME280;68989;52.032;5.152;2023-10-09T06:28:39;101998.39;;;23.79;52.38
79538;BME280;68989;52.032;5.152;2023-10-09T06:31:06;102011.90;;;23.79;52.27
79538;BME280;68989;52.032;5.152;2023-10-09T06:33:33;102003.88;;;23.80;52.44
79538;BME280;68989;52.032;5.152;2023-10-09T06:36:00;102005.16;;;23.81;52.46
79538;BME280;68989;52.032;5.152;2023-10-09T06:38:28;101993.57;;;23.82;52.41
79538;BME280;68989;52.032;5.152;2023-10-09T06:40:55;102009.49;;;23.83;52.39
79538;BME280;68989;52.032;5.152;2023-10-09T06:43:23;102033.80;;;23.84;52.35
79538;BME280;68989;52.032;5.152;2023-10-09T06:45:52;102041.01;;;23.85;51.99
79538;BME280;68989;52.032;5.152;2023-10-09T06:48:21;102037.84;;;23.86;52.09
79538;BME280;68989;52.032;5.152;2023-10-09T06:50:48;102047.14;;;23.88;52.36
79538;BME280;68989;52.032;5.152;2023-10-09T06:53:15;102067.79;;;23.89;52.42
79538;BME280;68989;52.032;5.152;2023-10-09T06:55:42;102058.23;;;23.91;52.74
79538;BME280;68989;52.032;5.152;2023-10-09T06:58:09;102071.95;;;23.93;52.35
79538;BME280;68989;52.032;5.152;2023-10-09T07:00:38;102070.47;;;23.95;52.74
79538;BME280;68989;52.032;5.152;2023-10-09T07:03:06;102068.37;;;23.98;53.25
79538;BME280;68989;52.032;5.152;2023-10-09T07:05:34;102062.04;;;24.01;52.96
79538;BME280;68989;52.032;5.152;2023-10-09T07:08:01;102065.36;;;24.03;52.69
79538;BME280;68989;52.032;5.152;2023-10-09T07:10:27;102057.80;;;24.04;53.00
79538;BME280;68989;52.032;5.152;2023-10-09T07:13:00;102065.93;;;24.06;53.18
79538;BME280;68989;52.032;5.152;2023-10-09T07:15:27;102067.73;;;24.08;53.02
79538;BME280;68989;52.032;5.152;2023-10-09T07:17:54;102060.99;;;24.10;53.30
79538;BME280;68989;52.032;5.152;2023-10-09T07:20:21;102066.17;;;24.12;53.38
79538;BME280;68989;52.032;5.152;2023-10-09T07:22:49;102049.62;;;24.15;53.84
79538;BME280;68989;52.032;5.152;2023-10-09T07:25:16;102021.47;;;24.16;53.61
79538;BME280;68989;52.032;5.152;2023-10-09T07:27:43;102011.57;;;24.16;53.40
79538;BME280;68989;52.032;5.152;2023-10-09T07:30:12;102013.42;;;24.17;53.39
79538;BME280;68989;52.032;5.152;2023-10-09T07:32:40;102003.32;;;24.18;52.74
79538;BME280;68989;52.032;5.152;2023-10-09T07:35:08;101997.13;;;24.21;51.99
79538;BME280;68989;52.032;5.152;2023-10-09T07:37:35;101983.43;;;24.23;51.91
79538;BME280;68989;52.032;5.152;2023-10-09T07:40:02;101965.49;;;24.25;52.50
79538;BME280;68989;52.032;5.152;2023-10-09T07:42:30;101965.66;;;24.26;53.52
79538;BME280;68989;52.032;5.152;2023-10-09T07:44:57;101980.58;;;24.28;53.89
79538;BME280;68989;52.032;5.152;2023-10-09T07:47:24;101979.59;;;24.32;54.25
79538;BME280;68989;52.032;5.152;2023-10-09T07:49:51;101989.26;;;24.34;54.31
79538;BME280;68989;52.032;5.152;2023-10-09T07:52:19;101992.70;;;24.37;54.53
79538;BME280;68989;52.032;5.152;2023-10-09T07:54:48;102009.54;;;24.41;55.33
79538;BME280;68989;52.032;5.152;2023-10-09T07:57:16;102047.29;;;24.47;55.27
79538;BME280;68989;52.032;5.152;2023-10-09T07:59:44;102046.75;;;24.53;54.99
79538;BME280;68989;52.032;5.152;2023-10-09T08:02:12;102043.60;;;24.58;54.38
79538;BME280;68989;52.032;5.152;2023-10-09T08:04:40;102034.79;;;24.63;54.02
79538;BME280;68989;52.032;5.152;2023-10-09T08:07:08;102045.71;;;24.68;54.67
79538;BME280;68989;52.032;5.152;2023-10-09T08:09:36;102048.77;;;24.74;54.30
79538;BME280;68989;52.032;5.152;2023-10-09T08:12:03;102054.26;;;24.79;53.77
79538;BME280;68989;52.032;5.152;2023-10-09T08:14:30;102052.94;;;24.84;54.01
79538;BME280;68989;52.032;5.152;2023-10-09T08:16:57;102059.98;;;24.86;53.71
79538;BME280;68989;52.032;5.152;2023-10-09T08:19:24;102066.72;;;24.90;53.84
79538;BME280;68989;52.032;5.152;2023-10-09T08:21:52;102058.28;;;24.94;54.29
79538;BME280;68989;52.032;5.152;2023-10-09T08:24:19;102068.84;;;25.00;55.00
79538;BME280;68989;52.032;5.152;2023-10-09T08:26:47;102075.24;;;25.06;55.09
79538;BME280;68989;52.032;5.152;2023-10-09T08:29:13;102083.85;;;25.11;53.30
79538;BME280;68989;52.032;5.152;2023-10-09T08:31:41;102093.69;;;25.16;53.17
79538;BME280;68989;52.032;5.152;2023-10-09T08:34:08;102102.45;;;25.22;53.94
79538;BME280;68989;52.032;5.152;2023-10-09T08:36:35;102101.66;;;25.34;53.75
79538;BME280;68989;52.032;5.152;2023-10-09T08:39:02;102104.45;;;25.40;53.86
79538;BME280;68989;52.032;5.152;2023-10-09T08:41:30;102099.49;;;25.47;54.06
79538;BME280;68989;52.032;5.152;2023-10-09T08:43:58;102099.16;;;25.52;53.77
79538;BME280;68989;52.032;5.152;2023-10-09T08:46:27;102096.23;;;25.56;53.25
79538;BME280;68989;52.032;5.152;2023-10-09T08:48:55;102102.30;;;25.61;53.94
79538;BME280;68989;52.032;5.152;2023-10-09T08:51:24;102103.10;;;25.68;53.62
79538;BME280;68989;52.032;5.152;2023-10-09T08:53:52;102111.67;;;25.73;52.97
79538;BME280;68989;52.032;5.152;2023-10-09T08:56:20;102118.73;;;25.79;52.84
79538;BME280;68989;52.032;5.152;2023-10-09T08:58:49;102118.99;;;25.85;54.23
79538;BME280;68989;52.032;5.152;2023-10-09T09:01:17;102124.06;;;25.92;54.34
79538;BME280;68989;52.032;5.152;2023-10-09T09:03:44;102129.67;;;26.01;53.93
79538;BME280;68989;52.032;5.152;2023-10-09T09:06:12;102128.14;;;26.08;53.32
79538;BME280;68989;52.032;5.152;2023-10-09T09:08:39;102123.51;;;26.14;52.13
79538;BME280;68989;52.032;5.152;2023-10-09T09:11:09;102125.44;;;26.19;53.26
79538;BME280;68989;52.032;5.152;2023-10-09T09:13:36;102121.54;;;26.28;52.72
79538;BME280;68989;52.032;5.152;2023-10-09T09:16:03;102120.19;;;26.35;53.29
79538;BME280;68989;52.032;5.152;2023-10-09T09:18:30;102123.93;;;26.43;53.40
79538;BME280;68989;52.032;5.152;2023-10-09T09:20:58;102130.09;;;26.49;52.81
79538;BME280;68989;52.032;5.152;2023-10-09T09:23:25;102130.71;;;26.60;52.72
79538;BME280;68989;52.032;5.152;2023-10-09T09:25:53;102137.68;;;26.68;52.23
79538;BME280;68989;52.032;5.152;2023-10-09T09:28:20;102143.55;;;26.74;52.11
79538;BME280;68989;52.032;5.152;2023-10-09T09:30:47;102137.01;;;26.80;51.61
79538;BME280;68989;52.032;5.152;2023-10-09T09:33:18;102137.50;;;26.85;51.30
79538;BME280;68989;52.032;5.152;2023-10-09T09:35:56;102137.36;;;26.91;51.47
79538;BME280;68989;52.032;5.152;2023-10-09T09:38:23;102138.19;;;26.98;50.49
79538;BME280;68989;52.032;5.152;2023-10-09T09:40:56;102129.84;;;27.04;51.03
79538;BME280;68989;52.032;5.152;2023-10-09T09:43:24;102130.39;;;27.10;51.17
79538;BME280;68989;52.032;5.152;2023-10-09T09:45:53;102128.02;;;27.16;50.96
79538;BME280;68989;52.032;5.152;2023-10-09T09:48:21;102122.48;;;27.23;50.28
79538;BME280;68989;52.032;5.152;2023-10-09T09:50:49;102127.01;;;27.26;50.43
79538;BME280;68989;52.032;5.152;2023-10-09T09:53:19;102127.93;;;27.32;49.90
79538;BME280;68989;52.032;5.152;2023-10-09T09:55:50;102129.65;;;27.36;49.99
79538;BME280;68989;52.032;5.152;2023-10-09T09:58:18;102131.59;;;27.40;49.75
79538;BME280;68989;52.032;5.152;2023-10-09T10:00:46;102127.51;;;27.44;49.57
79538;BME280;68989;52.032;5.152;2023-10-09T10:03:19;102123.57;;;27.48;50.06
79538;BME280;68989;52.032;5.152;2023-10-09T10:05:50;102122.68;;;27.53;49.85
79538;BME280;68989;52.032;5.152;2023-10-09T10:08:19;102123.08;;;27.55;49.36
79538;BME280;68989;52.032;5.152;2023-10-09T10:10:47;102124.48;;;27.59;49.98
79538;BME280;68989;52.032;5.152;2023-10-09T10:13:15;102127.18;;;27.65;49.68
79538;BME280;68989;52.032;5.152;2023-10-09T10:16:05;102129.88;;;27.69;49.47
79538;BME280;68989;52.032;5.152;2023-10-09T10:18:32;102129.84;;;27.74;49.03
79538;BME280;68989;52.032;5.152;2023-10-09T10:21:16;102131.67;;;27.79;48.57
79538;BME280;68989;52.032;5.152;2023-10-09T10:23:44;102135.06;;;27.81;48.96
79538;BME280;68989;52.032;5.152;2023-10-09T10:26:20;102137.88;;;27.84;49.12
79538;BME280;68989;52.032;5.152;2023-10-09T10:29:14;102141.31;;;27.88;48.60
79538;BME280;68989;52.032;5.152;2023-10-09T10:31:57;102143.52;;;27.94;48.21
79538;BME280;68989;52.032;5.152;2023-10-09T10:34:24;102147.05;;;28.00;48.35
79538;BME280;68989;52.032;5.152;2023-10-09T10:36:53;102148.95;;;28.05;47.58
79538;BME280;68989;52.032;5.152;2023-10-09T10:39:20;102146.90;;;28.07;47.66
79538;BME280;68989;52.032;5.152;2023-10-09T10:41:53;102144.69;;;28.11;47.70
79538;BME280;68989;52.032;5.152;2023-10-09T10:44:29;102145.86;;;28.17;47.69
79538;BME280;68989;52.032;5.152;2023-10-09T10:46:57;102146.47;;;28.24;47.59
79538;BME280;68989;52.032;5.152;2023-10-09T10:49:23;102143.08;;;28.31;47.45
79538;BME280;68989;52.032;5.152;2023-10-09T10:51:50;102146.05;;;28.36;47.14
79538;BME280;68989;52.032;5.152;2023-10-09T10:54:22;102145.00;;;28.41;46.37
79538;BME280;68989;52.032;5.152;2023-10-09T10:56:50;102147.15;;;28.46;46.49
79538;BME280;68989;52.032;5.152;2023-10-09T10:59:18;102148.09;;;28.49;45.70
79538;BME280;68989;52.032;5.152;2023-10-09T11:01:45;102148.77;;;28.57;45.90
79538;BME280;68989;52.032;5.152;2023-10-09T11:04:12;102147.76;;;28.61;45.62
79538;BME280;68989;52.032;5.152;2023-10-09T11:06:40;102151.80;;;28.66;45.87
79538;BME280;68989;52.032;5.152;2023-10-09T11:09:08;102147.64;;;28.69;45.43
79538;BME280;68989;52.032;5.152;2023-10-09T11:11:36;102150.41;;;28.72;45.44
79538;BME280;68989;52.032;5.152;2023-10-09T11:14:11;102150.28;;;28.74;45.16
79538;BME280;68989;52.032;5.152;2023-10-09T11:16:38;102142.05;;;28.78;44.78
79538;BME280;68989;52.032;5.152;2023-10-09T11:19:05;102147.84;;;28.74;45.07
79538;BME280;68989;52.032;5.152;2023-10-09T11:21:33;102148.00;;;28.76;45.05
79538;BME280;68989;52.032;5.152;2023-10-09T11:24:01;102150.54;;;28.79;45.26
79538;BME280;68989;52.032;5.152;2023-10-09T11:26:28;102149.70;;;28.83;44.78
79538;BME280;68989;52.032;5.152;2023-10-09T11:29:12;102150.75;;;28.86;44.79
79538;BME280;68989;52.032;5.152;2023-10-09T11:31:40;102150.65;;;28.88;44.93
79538;BME280;68989;52.032;5.152;2023-10-09T11:34:18;102145.52;;;28.93;44.44
79538;BME280;68989;52.032;5.152;2023-10-09T11:36:45;102141.00;;;29.02;44.03
79538;BME280;68989;52.032;5.152;2023-10-09T11:39:24;102140.82;;;29.07;44.27
79538;BME280;68989;52.032;5.152;2023-10-09T11:42:00;102142.14;;;29.11;44.23
79538;BME280;68989;52.032;5.152;2023-10-09T11:44:36;102134.18;;;29.15;43.95
79538;BME280;68989;52.032;5.152;2023-10-09T11:47:04;102133.95;;;29.18;44.12
79538;BME280;68989;52.032;5.152;2023-10-09T11:49:32;102133.88;;;29.21;44.14
79538;BME280;68989;52.032;5.152;2023-10-09T11:52:07;102131.99;;;29.20;44.02
79538;BME280;68989;52.032;5.152;2023-10-09T11:54:35;102133.78;;;29.24;44.01
79538;BME280;68989;52.032;5.152;2023-10-09T11:57:02;102133.84;;;29.27;44.05
79538;BME280;68989;52.032;5.152;2023-10-09T11:59:30;102133.24;;;29.32;43.71
79538;BME280;68989;52.032;5.152;2023-10-09T12:01:57;102130.57;;;29.35;44.15
79538;BME280;68989;52.032;5.152;2023-10-09T12:04:23;102128.36;;;29.41;44.12
79538;BME280;68989;52.032;5.152;2023-10-09T12:06:51;102129.29;;;29.47;43.99
79538;BME280;68989;52.032;5.152;2023-10-09T12:09:18;102128.54;;;29.49;43.78
79538;BME280;68989;52.032;5.152;2023-10-09T12:11:44;102127.53;;;29.52;43.46
79538;BME280;68989;52.032;5.152;2023-10-09T12:14:11;102127.03;;;29.55;43.41
79538;BME280;68989;52.032;5.152;2023-10-09T12:16:38;102121.20;;;29.57;43.36
79538;BME280;68989;52.032;5.152;2023-10-09T12:19:05;102115.90;;;29.59;43.68
79538;BME280;68989;52.032;5.152;2023-10-09T12:21:31;102113.60;;;29.63;43.73
79538;BME280;68989;52.032;5.152;2023-10-09T12:23:58;102111.02;;;29.64;42.99
79538;BME280;68989;52.032;5.152;2023-10-09T12:26:25;102109.77;;;29.61;43.37
79538;BME280;68989;52.032;5.152;2023-10-09T12:28:53;102112.40;;;29.59;43.41
79538;BME280;68989;52.032;5.152;2023-10-09T12:31:20;102110.28;;;29.64;43.23
79538;BME280;68989;52.032;5.152;2023-10-09T12:33:47;102111.02;;;29.64;43.39
79538;BME280;68989;52.032;5.152;2023-10-09T12:36:14;102112.66;;;29.63;43.37
79538;BME280;68989;52.032;5.152;2023-10-09T12:38:42;102112.33;;;29.62;43.24
79538;BME280;68989;52.032;5.152;2023-10-09T12:41:08;102108.96;;;29.61;43.21
79538;BME280;68989;52.032;5.152;2023-10-09T12:43:36;102104.16;;;29.60;43.83
79538;BME280;68989;52.032;5.152;2023-10-09T12:46:06;102102.70;;;29.59;43.83
79538;BME280;68989;52.032;5.152;2023-10-09T12:48:33;102108.01;;;29.60;43.86
79538;BME280;68989;52.032;5.152;2023-10-09T12:51:01;102110.93;;;29.59;43.83
79538;BME280;68989;52.032;5.152;2023-10-09T12:53:29;102112.06;;;29.60;43.92
79538;BME280;68989;52.032;5.152;2023-10-09T12:55:56;102113.86;;;29.59;43.69
79538;BME280;68989;52.032;5.152;2023-10-09T12:58:23;102113.62;;;29.58;43.73
79538;BME280;68989;52.032;5.152;2023-10-09T13:00:49;102118.72;;;29.57;43.61
79538;BME280;68989;52.032;5.152;2023-10-09T13:03:18;102121.10;;;29.56;43.59
79538;BME280;68989;52.032;5.152;2023-10-09T13:05:47;102126.72;;;29.55;43.59
79538;BME280;68989;52.032;5.152;2023-10-09T13:08:14;102137.15;;;29.53;43.50
79538;BME280;68989;52.032;5.152;2023-10-09T13:10:41;102134.18;;;29.51;43.71
79538;BME280;68989;52.032;5.152;2023-10-09T13:13:08;102129.49;;;29.50;43.55
79538;BME280;68989;52.032;5.152;2023-10-09T13:15:36;102125.81;;;29.47;43.44
79538;BME280;68989;52.032;5.152;2023-10-09T13:18:03;102127.83;;;29.46;43.49
79538;BME280;68989;52.032;5.152;2023-10-09T13:20:30;102127.80;;;29.43;43.46
79538;BME280;68989;52.032;5.152;2023-10-09T13:22:57;102128.65;;;29.42;43.38
79538;BME280;68989;52.032;5.152;2023-10-09T13:25:25;102131.71;;;29.42;43.57
79538;BME280;68989;52.032;5.152;2023-10-09T13:27:53;102137.46;;;29.42;43.30
79538;BME280;68989;52.032;5.152;2023-10-09T13:30:20;102140.97;;;29.39;43.02
79538;BME280;68989;52.032;5.152;2023-10-09T13:32:47;102137.98;;;29.36;43.07
79538;BME280;68989;52.032;5.152;2023-10-09T13:35:14;102137.62;;;29.34;43.22
79538;BME280;68989;52.032;5.152;2023-10-09T13:37:41;102138.99;;;29.31;43.25
79538;BME280;68989;52.032;5.152;2023-10-09T13:40:09;102140.37;;;29.29;43.23
79538;BME280;68989;52.032;5.152;2023-10-09T13:42:36;102133.55;;;29.27;43.22
79538;BME280;68989;52.032;5.152;2023-10-09T13:45:03;102133.61;;;29.25;43.13
79538;BME280;68989;52.032;5.152;2023-10-09T13:47:30;102137.09;;;29.26;43.32
79538;BME280;68989;52.032;5.152;2023-10-09T13:49:57;102131.47;;;29.24;43.39
79538;BME280;68989;52.032;5.152;2023-10-09T13:52:25;102123.77;;;29.24;43.28
79538;BME280;68989;52.032;5.152;2023-10-09T13:54:53;102121.54;;;29.26;43.16
79538;BME280;68989;52.032;5.152;2023-10-09T13:57:21;102118.41;;;29.27;43.20
79538;BME280;68989;52.032;5.152;2023-10-09T13:59:47;102120.61;;;29.26;43.08
79538;BME280;68989;52.032;5.152;2023-10-09T14:02:14;102115.94;;;29.26;43.00
79538;BME280;68989;52.032;5.152;2023-10-09T14:04:42;102116.83;;;29.28;43.07
79538;BME280;68989;52.032;5.152;2023-10-09T14:07:09;102118.31;;;29.30;43.44
79538;BME280;68989;52.032;5.152;2023-10-09T14:09:36;102120.46;;;29.37;43.69
79538;BME280;68989;52.032;5.152;2023-10-09T14:12:05;102118.07;;;29.40;43.75
79538;BME280;68989;52.032;5.152;2023-10-09T14:14:35;102114.03;;;29.45;43.64
79538;BME280;68989;52.032;5.152;2023-10-09T14:17:02;102114.66;;;29.54;43.90
79538;BME280;68989;52.032;5.152;2023-10-09T14:19:30;102121.97;;;29.61;43.58
79538;BME280;68989;52.032;5.152;2023-10-09T14:21:58;102124.80;;;29.68;43.28
79538;BME280;68989;52.032;5.152;2023-10-09T14:24:24;102121.58;;;29.71;43.11
79538;BME280;68989;52.032;5.152;2023-10-09T14:26:51;102121.31;;;29.74;42.70
79538;BME280;68989;52.032;5.152;2023-10-09T14:29:18;102115.23;;;29.76;42.55
79538;BME280;68989;52.032;5.152;2023-10-09T14:31:46;102113.46;;;29.76;42.68
79538;BME280;68989;52.032;5.152;2023-10-09T14:34:13;102110.35;;;29.76;42.62
79538;BME280;68989;52.032;5.152;2023-10-09T14:36:39;102103.71;;;29.77;42.58
79538;BME280;68989;52.032;5.152;2023-10-09T14:39:06;102102.82;;;29.77;42.69
79538;BME280;68989;52.032;5.152;2023-10-09T14:41:33;102102.11;;;29.76;42.59
79538;BME280;68989;52.032;5.152;2023-10-09T14:44:00;102096.59;;;29.76;42.82
79538;BME280;68989;52.032;5.152;2023-10-09T14:46:27;102097.30;;;29.75;42.89
79538;BME280;68989;52.032;5.152;2023-10-09T14:48:55;102099.92;;;29.74;42.89
79538;BME280;68989;52.032;5.152;2023-10-09T14:51:24;102105.39;;;29.73;42.75
79538;BME280;68989;52.032;5.152;2023-10-09T14:53:51;102109.39;;;29.71;42.83
79538;BME280;68989;52.032;5.152;2023-10-09T14:56:18;102109.06;;;29.68;42.94
79538;BME280;68989;52.032;5.152;2023-10-09T14:58:45;102111.82;;;29.66;42.91
79538;BME280;68989;52.032;5.152;2023-10-09T15:01:12;102114.54;;;29.65;42.97
79538;BME280;68989;52.032;5.152;2023-10-09T15:03:39;102116.76;;;29.58;42.98
79538;BME280;68989;52.032;5.152;2023-10-09T15:06:07;102114.62;;;29.55;42.95
79538;BME280;68989;52.032;5.152;2023-10-09T15:08:35;102112.81;;;29.51;42.95
79538;BME280;68989;52.032;5.152;2023-10-09T15:11:01;102111.52;;;29.46;43.00
79538;BME280;68989;52.032;5.152;2023-10-09T15:13:28;102112.34;;;29.41;43.04